sensor_id;sensor_type;location;lat;lon;timestamp;temperature;humidity
975;DHT22;6115;49.296;10.602;2023-11-18T00:03:29;5.10;75.30
975;DHT22;6115;49.296;10.602;2023-11-18T00:08:30;5.20;75.30
975;DHT22;6115;49.296;10.602;2023-11-18T00:13:31;5.20;75.40
975;DHT22;6115;49.296;10.602;2023-11-18T00:18:32;5.00;75.10
975;DHT22;6115;49.296;10.602;2023-11-18T00:23:32;4.80;75.80
975;DHT22;6115;49.296;10.602;2023-11-18T00:28:33;5.00;76.70
975;DHT22;6115;49.296;10.602;2023-11-18T00:33:34;5.00;76.60
975;DHT22;6115;49.296;10.602;2023-11-18T00:38:34;4.90;76.30
975;DHT22;6115;49.296;10.602;2023-11-18T00:43:35;4.80;76.10
975;DHT22;6115;49.296;10.602;2023-11-18T00:48:35;4.80;75.50
975;DHT22;6115;49.296;10.602;2023-11-18T00:53:36;4.70;75.50
975;DHT22;6115;49.296;10.602;2023-11-18T00:58:36;4.90;75.70
975;DHT22;6115;49.296;10.602;2023-11-18T01:03:40;4.80;75.30
975;DHT22;6115;49.296;10.602;2023-11-18T01:08:44;4.80;75.30
975;DHT22;6115;49.296;10.602;2023-11-18T01:13:51;4.80;75.00
975;DHT22;6115;49.296;10.602;2023-11-18T01:18:55;4.90;75.00
975;DHT22;6115;49.296;10.602;2023-11-18T01:23:55;4.80;75.50
975;DHT22;6115;49.296;10.602;2023-11-18T01:28:56;4.80;76.10
975;DHT22;6115;49.296;10.602;2023-11-18T01:33:56;4.90;76.50
975;DHT22;6115;49.296;10.602;2023-11-18T01:38:57;5.00;76.70
975;DHT22;6115;49.296;10.602;2023-11-18T01:43:58;5.00;76.60
975;DHT22;6115;49.296;10.602;2023-11-18T01:48:59;4.80;76.20
975;DHT22;6115;49.296;10.602;2023-11-18T01:54:00;4.80;76.50
975;DHT22;6115;49.296;10.602;2023-11-18T01:59:00;4.80;76.90
975;DHT22;6115;49.296;10.602;2023-11-18T02:04:03;4.70;76.70
975;DHT22;6115;49.296;10.602;2023-11-18T02:09:08;4.70;76.90
975;DHT22;6115;49.296;10.602;2023-11-18T02:14:13;4.80;76.80
975;DHT22;6115;49.296;10.602;2023-11-18T02:19:20;4.80;76.60
975;DHT22;6115;49.296;10.602;2023-11-18T02:24:30;4.90;76.50
975;DHT22;6115;49.296;10.602;2023-11-18T02:29:44;4.90;76.60
975;DHT22;6115;49.296;10.602;2023-11-18T02:35:23;4.90;76.50
975;DHT22;6115;49.296;10.602;2023-11-18T02:40:33;4.90;76.20
975;DHT22;6115;49.296;10.602;2023-11-18T02:45:36;4.90;76.40
975;DHT22;6115;49.296;10.602;2023-11-18T02:50:37;4.90;76.60
975;DHT22;6115;49.296;10.602;2023-11-18T02:55:38;4.80;76.60
975;DHT22;6115;49.296;10.602;2023-11-18T03:00:41;4.60;76.60
975;DHT22;6115;49.296;10.602;2023-11-18T03:05:41;4.50;77.00
975;DHT22;6115;49.296;10.602;2023-11-18T03:10:42;4.60;77.60
975;DHT22;6115;49.296;10.602;2023-11-18T03:15:44;4.70;78.00
975;DHT22;6115;49.296;10.602;2023-11-18T03:20:45;4.70;77.80
975;DHT22;6115;49.296;10.602;2023-11-18T03:25:45;4.80;77.90
975;DHT22;6115;49.296;10.602;2023-11-18T03:30:47;4.80;77.90
975;DHT22;6115;49.296;10.602;2023-11-18T03:35:48;4.80;78.30
975;DHT22;6115;49.296;10.602;2023-11-18T03:40:49;4.80;78.40
975;DHT22;6115;49.296;10.602;2023-11-18T03:45:50;4.90;78.50
975;DHT22;6115;49.296;10.602;2023-11-18T03:50:52;4.90;78.40
975;DHT22;6115;49.296;10.602;2023-11-18T03:55:54;4.90;78.50
975;DHT22;6115;49.296;10.602;2023-11-18T04:00:54;4.90;78.50
975;DHT22;6115;49.296;10.602;2023-11-18T04:05:57;4.70;78.20
975;DHT22;6115;49.296;10.602;2023-11-18T04:10:58;4.80;78.50
975;DHT22;6115;49.296;10.602;2023-11-18T04:15:58;4.80;78.70
975;DHT22;6115;49.296;10.602;2023-11-18T04:20:59;4.70;78.80
975;DHT22;6115;49.296;10.602;2023-11-18T04:25:59;4.70;79.00
975;DHT22;6115;49.296;10.602;2023-11-18T04:31:00;4.80;79.40
975;DHT22;6115;49.296;10.602;2023-11-18T04:36:01;4.90;79.40
975;DHT22;6115;49.296;10.602;2023-11-18T04:41:01;4.90;79.30
975;DHT22;6115;49.296;10.602;2023-11-18T04:46:04;4.90;79.10
975;DHT22;6115;49.296;10.602;2023-11-18T04:51:05;4.90;79.20
975;DHT22;6115;49.296;10.602;2023-11-18T04:56:06;4.90;79.20
975;DHT22;6115;49.296;10.602;2023-11-18T05:01:10;4.90;79.00
975;DHT22;6115;49.296;10.602;2023-11-18T05:06:11;4.80;79.20
975;DHT22;6115;49.296;10.602;2023-11-18T05:11:11;4.90;79.60
975;DHT22;6115;49.296;10.602;2023-11-18T05:16:13;4.90;79.70
975;DHT22;6115;49.296;10.602;2023-11-18T05:21:14;5.00;79.60
975;DHT22;6115;49.296;10.602;2023-11-18T05:26:15;5.10;79.40
975;DHT22;6115;49.296;10.602;2023-11-18T05:31:16;5.10;79.10
975;DHT22;6115;49.296;10.602;2023-11-18T05:36:17;5.00;79.10
975;DHT22;6115;49.296;10.602;2023-11-18T05:41:17;5.00;79.20
975;DHT22;6115;49.296;10.602;2023-11-18T05:46:27;5.10;79.70
975;DHT22;6115;49.296;10.602;2023-11-18T05:51:30;5.00;79.40
975;DHT22;6115;49.296;10.602;2023-11-18T05:56:30;5.00;79.90
975;DHT22;6115;49.296;10.602;2023-11-18T06:01:32;5.00;79.90
975;DHT22;6115;49.296;10.602;2023-11-18T06:06:32;5.00;79.70
975;DHT22;6115;49.296;10.602;2023-11-18T06:11:33;5.10;79.50
975;DHT22;6115;49.296;10.602;2023-11-18T06:16:34;5.10;79.10
975;DHT22;6115;49.296;10.602;2023-11-18T06:21:36;5.00;78.70
975;DHT22;6115;49.296;10.602;2023-11-18T06:26:37;5.00;78.50
975;DHT22;6115;49.296;10.602;2023-11-18T06:31:37;4.90;78.20
975;DHT22;6115;49.296;10.602;2023-11-18T06:36:38;4.90;77.90
975;DHT22;6115;49.296;10.602;2023-11-18T06:41:38;4.80;77.30
975;DHT22;6115;49.296;10.602;2023-11-18T06:46:48;4.60;76.90
975;DHT22;6115;49.296;10.602;2023-11-18T06:51:51;4.50;76.90
975;DHT22;6115;49.296;10.602;2023-11-18T06:56:51;4.40;76.60
975;DHT22;6115;49.296;10.602;2023-11-18T07:01:53;4.30;76.50
975;DHT22;6115;49.296;10.602;2023-11-18T07:06:53;4.10;76.20
975;DHT22;6115;49.296;10.602;2023-11-18T07:11:54;4.00;76.50
975;DHT22;6115;49.296;10.602;2023-11-18T07:16:56;4.10;77.60
975;DHT22;6115;49.296;10.602;2023-11-18T07:21:57;4.30;78.30
975;DHT22;6115;49.296;10.602;2023-11-18T07:26:57;4.30;78.60
975;DHT22;6115;49.296;10.602;2023-11-18T07:32:00;4.40;78.90
975;DHT22;6115;49.296;10.602;2023-11-18T07:37:05;4.50;78.60
975;DHT22;6115;49.296;10.602;2023-11-18T07:42:08;4.60;78.90
975;DHT22;6115;49.296;10.602;2023-11-18T07:47:09;4.60;79.50
975;DHT22;6115;49.296;10.602;2023-11-18T07:52:10;4.80;79.70
975;DHT22;6115;49.296;10.602;2023-11-18T07:57:10;4.80;79.70
975;DHT22;6115;49.296;10.602;2023-11-18T08:02:11;5.10;80.00
975;DHT22;6115;49.296;10.602;2023-11-18T08:07:15;5.20;80.00
975;DHT22;6115;49.296;10.602;2023-11-18T08:12:15;5.30;79.50
975;DHT22;6115;49.296;10.602;2023-11-18T08:17:16;5.40;79.30
975;DHT22;6115;49.296;10.602;2023-11-18T08:22:16;5.60;79.30
975;DHT22;6115;49.296;10.602;2023-11-18T08:27:19;5.80;79.40
975;DHT22;6115;49.296;10.602;2023-11-18T08:32:19;6.00;79.20
975;DHT22;6115;49.296;10.602;2023-11-18T08:37:20;6.00;79.00
975;DHT22;6115;49.296;10.602;2023-11-18T08:42:21;6.20;78.90
975;DHT22;6115;49.296;10.602;2023-11-18T08:47:22;6.30;78.50
975;DHT22;6115;49.296;10.602;2023-11-18T08:52:24;6.30;78.30
975;DHT22;6115;49.296;10.602;2023-11-18T08:57:26;6.40;78.20
975;DHT22;6115;49.296;10.602;2023-11-18T09:02:26;6.60;78.40
975;DHT22;6115;49.296;10.602;2023-11-18T09:07:29;6.80;78.00
975;DHT22;6115;49.296;10.602;2023-11-18T09:12:30;6.80;76.80
975;DHT22;6115;49.296;10.602;2023-11-18T09:17:31;6.50;76.60
975;DHT22;6115;49.296;10.602;2023-11-18T09:22:31;6.70;76.70
975;DHT22;6115;49.296;10.602;2023-11-18T09:27:33;6.60;76.70
975;DHT22;6115;49.296;10.602;2023-11-18T09:32:34;6.70;76.70
975;DHT22;6115;49.296;10.602;2023-11-18T09:37:35;6.90;76.90
975;DHT22;6115;49.296;10.602;2023-11-18T09:42:35;7.10;77.10
975;DHT22;6115;49.296;10.602;2023-11-18T09:47:43;6.90;76.30
975;DHT22;6115;49.296;10.602;2023-11-18T09:52:49;7.20;76.40
975;DHT22;6115;49.296;10.602;2023-11-18T09:57:57;7.30;76.00
975;DHT22;6115;49.296;10.602;2023-11-18T10:03:00;7.60;75.60
975;DHT22;6115;49.296;10.602;2023-11-18T10:08:08;7.70;74.10
975;DHT22;6115;49.296;10.602;2023-11-18T10:13:08;7.80;73.00
975;DHT22;6115;49.296;10.602;2023-11-18T10:18:22;7.70;72.00
975;DHT22;6115;49.296;10.602;2023-11-18T10:23:23;7.60;72.30
975;DHT22;6115;49.296;10.602;2023-11-18T10:33:27;7.30;71.40
975;DHT22;6115;49.296;10.602;2023-11-18T10:38:32;7.30;72.50
975;DHT22;6115;49.296;10.602;2023-11-18T10:43:33;7.40;71.50
975;DHT22;6115;49.296;10.602;2023-11-18T10:48:36;7.40;70.60
975;DHT22;6115;49.296;10.602;2023-11-18T10:53:37;7.70;70.60
975;DHT22;6115;49.296;10.602;2023-11-18T10:58:37;7.80;70.10
975;DHT22;6115;49.296;10.602;2023-11-18T11:03:54;8.10;69.70
975;DHT22;6115;49.296;10.602;2023-11-18T11:08:58;8.10;67.40
975;DHT22;6115;49.296;10.602;2023-11-18T11:14:00;8.00;67.70
975;DHT22;6115;49.296;10.602;2023-11-18T11:19:04;7.70;68.00
975;DHT22;6115;49.296;10.602;2023-11-18T11:24:39;7.60;68.10
975;DHT22;6115;49.296;10.602;2023-11-18T11:29:48;7.30;68.50
975;DHT22;6115;49.296;10.602;2023-11-18T11:35:02;7.60;69.70
975;DHT22;6115;49.296;10.602;2023-11-18T11:40:08;7.90;69.60
975;DHT22;6115;49.296;10.602;2023-11-18T11:45:11;8.00;68.40
975;DHT22;6115;49.296;10.602;2023-11-18T11:50:25;8.20;68.50
975;DHT22;6115;49.296;10.602;2023-11-18T11:55:46;8.50;67.30
975;DHT22;6115;49.296;10.602;2023-11-18T12:00:48;8.50;66.00
975;DHT22;6115;49.296;10.602;2023-11-18T12:05:54;8.40;65.70
975;DHT22;6115;49.296;10.602;2023-11-18T12:10:55;8.40;65.70
975;DHT22;6115;49.296;10.602;2023-11-18T12:15:56;8.40;65.30
975;DHT22;6115;49.296;10.602;2023-11-18T12:20:57;8.50;64.80
975;DHT22;6115;49.296;10.602;2023-11-18T12:26:02;8.40;64.50
975;DHT22;6115;49.296;10.602;2023-11-18T12:31:39;8.60;64.90
975;DHT22;6115;49.296;10.602;2023-11-18T12:42:06;8.40;64.60
975;DHT22;6115;49.296;10.602;2023-11-18T12:47:08;8.40;64.30
975;DHT22;6115;49.296;10.602;2023-11-18T12:52:18;8.30;63.70
975;DHT22;6115;49.296;10.602;2023-11-18T12:57:26;8.30;63.80
975;DHT22;6115;49.296;10.602;2023-11-18T13:02:31;8.30;64.20
975;DHT22;6115;49.296;10.602;2023-11-18T13:07:32;8.20;63.50
975;DHT22;6115;49.296;10.602;2023-11-18T13:12:33;8.20;63.50
975;DHT22;6115;49.296;10.602;2023-11-18T13:17:34;8.50;63.80
975;DHT22;6115;49.296;10.602;2023-11-18T13:22:35;8.70;64.00
975;DHT22;6115;49.296;10.602;2023-11-18T13:27:36;8.60;63.10
975;DHT22;6115;49.296;10.602;2023-11-18T13:32:36;8.40;63.70
975;DHT22;6115;49.296;10.602;2023-11-18T13:37:37;8.30;63.70
975;DHT22;6115;49.296;10.602;2023-11-18T13:42:37;8.50;63.80
975;DHT22;6115;49.296;10.602;2023-11-18T13:47:40;8.30;63.20
975;DHT22;6115;49.296;10.602;2023-11-18T13:52:43;8.30;63.00
975;DHT22;6115;49.296;10.602;2023-11-18T13:57:44;8.10;62.30
975;DHT22;6115;49.296;10.602;2023-11-18T14:02:46;8.20;63.50
975;DHT22;6115;49.296;10.602;2023-11-18T14:07:48;8.30;63.70
975;DHT22;6115;49.296;10.602;2023-11-18T14:12:59;8.30;63.70
975;DHT22;6115;49.296;10.602;2023-11-18T14:18:02;8.30;63.70
975;DHT22;6115;49.296;10.602;2023-11-18T14:23:03;8.30;63.30
975;DHT22;6115;49.296;10.602;2023-11-18T14:28:04;8.20;63.50
975;DHT22;6115;49.296;10.602;2023-11-18T14:33:04;8.10;63.50
975;DHT22;6115;49.296;10.602;2023-11-18T14:38:05;8.00;63.40
975;DHT22;6115;49.296;10.602;2023-11-18T14:43:06;7.90;63.50
975;DHT22;6115;49.296;10.602;2023-11-18T14:48:07;7.90;64.10
975;DHT22;6115;49.296;10.602;2023-11-18T14:53:08;7.80;64.90
975;DHT22;6115;49.296;10.602;2023-11-18T14:58:08;7.80;65.50
975;DHT22;6115;49.296;10.602;2023-11-18T15:03:12;7.70;66.10
975;DHT22;6115;49.296;10.602;2023-11-18T15:08:12;7.60;66.50
975;DHT22;6115;49.296;10.602;2023-11-18T15:13:13;7.50;67.20
975;DHT22;6115;49.296;10.602;2023-11-18T15:18:16;7.50;67.80
975;DHT22;6115;49.296;10.602;2023-11-18T15:23:20;7.60;67.90
975;DHT22;6115;49.296;10.602;2023-11-18T15:28:22;7.50;67.80
975;DHT22;6115;49.296;10.602;2023-11-18T15:33:22;7.50;67.90
975;DHT22;6115;49.296;10.602;2023-11-18T15:38:23;7.40;67.80
975;DHT22;6115;49.296;10.602;2023-11-18T15:43:24;7.30;68.60
975;DHT22;6115;49.296;10.602;2023-11-18T15:48:25;7.30;68.80
975;DHT22;6115;49.296;10.602;2023-11-18T15:53:29;7.10;69.20
975;DHT22;6115;49.296;10.602;2023-11-18T15:58:30;7.00;69.40
975;DHT22;6115;49.296;10.602;2023-11-18T16:03:30;6.90;69.90
975;DHT22;6115;49.296;10.602;2023-11-18T16:08:31;6.80;70.20
975;DHT22;6115;49.296;10.602;2023-11-18T16:13:31;6.80;70.10
975;DHT22;6115;49.296;10.602;2023-11-18T16:18:34;6.80;69.40
975;DHT22;6115;49.296;10.602;2023-11-18T16:23:35;6.80;69.30
975;DHT22;6115;49.296;10.602;2023-11-18T16:28:35;6.70;69.10
975;DHT22;6115;49.296;10.602;2023-11-18T16:33:36;6.60;69.30
975;DHT22;6115;49.296;10.602;2023-11-18T16:38:37;6.60;69.70
975;DHT22;6115;49.296;10.602;2023-11-18T16:43:37;6.30;70.70
975;DHT22;6115;49.296;10.602;2023-11-18T16:48:39;6.30;71.60
975;DHT22;6115;49.296;10.602;2023-11-18T16:53:41;6.30;71.60
975;DHT22;6115;49.296;10.602;2023-11-18T16:58:41;6.30;71.90
975;DHT22;6115;49.296;10.602;2023-11-18T17:03:43;6.20;73.10
975;DHT22;6115;49.296;10.602;2023-11-18T17:08:44;6.20;73.90
975;DHT22;6115;49.296;10.602;2023-11-18T17:13:45;6.10;74.30
975;DHT22;6115;49.296;10.602;2023-11-18T17:18:46;6.20;74.90
975;DHT22;6115;49.296;10.602;2023-11-18T17:23:46;6.10;75.10
975;DHT22;6115;49.296;10.602;2023-11-18T17:28:47;6.00;75.40
975;DHT22;6115;49.296;10.602;2023-11-18T17:33:50;6.10;75.90
975;DHT22;6115;49.296;10.602;2023-11-18T17:38:51;5.90;76.00
975;DHT22;6115;49.296;10.602;2023-11-18T17:43:52;5.90;76.00
975;DHT22;6115;49.296;10.602;2023-11-18T17:48:52;5.80;76.60
975;DHT22;6115;49.296;10.602;2023-11-18T17:53:53;5.80;77.10
975;DHT22;6115;49.296;10.602;2023-11-18T17:58:53;5.80;77.50
975;DHT22;6115;49.296;10.602;2023-11-18T18:03:54;5.70;77.60
975;DHT22;6115;49.296;10.602;2023-11-18T18:08:54;5.80;78.00
975;DHT22;6115;49.296;10.602;2023-11-18T18:13:55;5.90;77.90
975;DHT22;6115;49.296;10.602;2023-11-18T18:18:55;5.90;77.60
975;DHT22;6115;49.296;10.602;2023-11-18T18:23:57;5.90;77.20
975;DHT22;6115;49.296;10.602;2023-11-18T18:28:57;5.90;77.10
975;DHT22;6115;49.296;10.602;2023-11-18T18:33:59;5.90;76.70
975;DHT22;6115;49.296;10.602;2023-11-18T18:39:00;5.90;76.50
975;DHT22;6115;49.296;10.602;2023-11-18T18:44:00;5.90;76.60
975;DHT22;6115;49.296;10.602;2023-11-18T18:49:02;5.80;75.90
975;DHT22;6115;49.296;10.602;2023-11-18T18:54:02;5.80;75.90
975;DHT22;6115;49.296;10.602;2023-11-18T18:59:05;5.70;76.00
975;DHT22;6115;49.296;10.602;2023-11-18T19:04:11;5.70;76.30
975;DHT22;6115;49.296;10.602;2023-11-18T19:09:15;5.70;76.60
975;DHT22;6115;49.296;10.602;2023-11-18T19:14:18;5.70;76.80
975;DHT22;6115;49.296;10.602;2023-11-18T19:19:19;5.70;76.80
975;DHT22;6115;49.296;10.602;2023-11-18T19:24:19;5.70;77.40
975;DHT22;6115;49.296;10.602;2023-11-18T19:29:20;5.70;77.60
975;DHT22;6115;49.296;10.602;2023-11-18T19:34:21;5.70;77.60
975;DHT22;6115;49.296;10.602;2023-11-18T19:39:21;5.70;77.70
975;DHT22;6115;49.296;10.602;2023-11-18T19:44:22;5.70;78.00
975;DHT22;6115;49.296;10.602;2023-11-18T19:49:22;5.70;78.30
975;DHT22;6115;49.296;10.602;2023-11-18T19:54:23;5.70;78.60
975;DHT22;6115;49.296;10.602;2023-11-18T19:59:24;5.60;78.80
975;DHT22;6115;49.296;10.602;2023-11-18T20:04:25;5.70;79.30
975;DHT22;6115;49.296;10.602;2023-11-18T20:09:25;5.70;79.50
975;DHT22;6115;49.296;10.602;2023-11-18T20:14:26;5.70;79.60
975;DHT22;6115;49.296;10.602;2023-11-18T20:19:26;5.60;79.70
975;DHT22;6115;49.296;10.602;2023-11-18T20:24:32;5.50;80.30
975;DHT22;6115;49.296;10.602;2023-11-18T20:29:35;5.50;80.40
975;DHT22;6115;49.296;10.602;2023-11-18T20:34:35;5.50;80.30
975;DHT22;6115;49.296;10.602;2023-11-18T20:39:36;5.60;80.80
975;DHT22;6115;49.296;10.602;2023-11-18T20:44:38;5.70;81.00
975;DHT22;6115;49.296;10.602;2023-11-18T20:49:38;5.80;81.30
975;DHT22;6115;49.296;10.602;2023-11-18T20:54:39;5.80;81.20
975;DHT22;6115;49.296;10.602;2023-11-18T20:59:39;5.70;81.10
975;DHT22;6115;49.296;10.602;2023-11-18T21:04:40;5.70;81.30
975;DHT22;6115;49.296;10.602;2023-11-18T21:09:43;5.90;82.20
975;DHT22;6115;49.296;10.602;2023-11-18T21:14:46;5.80;81.40
975;DHT22;6115;49.296;10.602;2023-11-18T21:19:48;6.00;81.50
975;DHT22;6115;49.296;10.602;2023-11-18T21:24:50;6.00;81.30
975;DHT22;6115;49.296;10.602;2023-11-18T21:29:51;5.80;81.50
975;DHT22;6115;49.296;10.602;2023-11-18T21:34:51;5.80;82.00
975;DHT22;6115;49.296;10.602;2023-11-18T21:39:52;5.70;81.90
975;DHT22;6115;49.296;10.602;2023-11-18T21:44:52;5.70;82.40
975;DHT22;6115;49.296;10.602;2023-11-18T21:49:54;5.70;82.50
975;DHT22;6115;49.296;10.602;2023-11-18T21:54:56;5.70;82.50
975;DHT22;6115;49.296;10.602;2023-11-18T21:59:56;5.70;82.60
975;DHT22;6115;49.296;10.602;2023-11-18T22:04:57;5.70;82.60
975;DHT22;6115;49.296;10.602;2023-11-18T22:09:58;5.70;82.80
975;DHT22;6115;49.296;10.602;2023-11-18T22:14:59;5.80;83.00
975;DHT22;6115;49.296;10.602;2023-11-18T22:20:00;5.80;83.00
975;DHT22;6115;49.296;10.602;2023-11-18T22:25:01;5.80;83.00
975;DHT22;6115;49.296;10.602;2023-11-18T22:30:02;5.80;83.00
975;DHT22;6115;49.296;10.602;2023-11-18T22:35:05;5.80;83.90
975;DHT22;6115;49.296;10.602;2023-11-18T22:40:07;5.90;83.30
975;DHT22;6115;49.296;10.602;2023-11-18T22:45:15;5.90;83.20
975;DHT22;6115;49.296;10.602;2023-11-18T22:50:16;6.00;83.20
975;DHT22;6115;49.296;10.602;2023-11-18T22:55:17;5.90;83.20
975;DHT22;6115;49.296;10.602;2023-11-18T23:00:19;5.90;83.30
975;DHT22;6115;49.296;10.602;2023-11-18T23:05:50;6.00;83.40
975;DHT22;6115;49.296;10.602;2023-11-18T23:10:53;6.00;83.20
975;DHT22;6115;49.296;10.602;2023-11-18T23:15:53;6.00;83.20
975;DHT22;6115;49.296;10.602;2023-11-18T23:20:56;6.00;83.40
975;DHT22;6115;49.296;10.602;2023-11-18T23:25:57;6.00;83.40
975;DHT22;6115;49.296;10.602;2023-11-18T23:30:58;6.00;83.40
975;DHT22;6115;49.296;10.602;2023-11-18T23:36:01;6.10;83.50
975;DHT22;6115;49.296;10.602;2023-11-18T23:41:03;6.30;83.60
975;DHT22;6115;49.296;10.602;2023-11-18T23:46:04;6.30;83.40
975;DHT22;6115;49.296;10.602;2023-11-18T23:51:06;6.30;83.20
975;DHT22;6115;49.296;10.602;2023-11-18T23:56:07;6.30;82.90
